createdAt,value
2018-05-21T00:00:10.328Z,99.99
2018-05-21T00:01:10.269Z,99.99
2018-05-21T00:02:10.236Z,99.99
2018-05-21T00:03:10.194Z,99.99
2018-05-21T00:04:10.146Z,99.99
2018-05-21T00:05:10.133Z,99.99
2018-05-21T00:06:10.079Z,99.99
2018-05-21T00:07:10.036Z,99.99
2018-05-21T00:08:10.001Z,99.99
2018-05-21T00:09:09.960Z,99.99
2018-05-21T00:10:09.941Z,99.99
2018-05-21T00:11:09.874Z,99.99
2018-05-21T00:12:09.835Z,99.99
2018-05-21T00:13:09.797Z,99.99
2018-05-21T00:14:09.767Z,99.99
2018-05-21T00:15:09.726Z,99.99
2018-05-21T00:16:09.710Z,99.99
2018-05-21T00:17:09.645Z,99.99
2018-05-21T00:18:09.603Z,99.99
2018-05-21T00:19:09.559Z,99.99
2018-05-21T00:20:09.548Z,99.99
2018-05-21T00:21:09.484Z,99.99
2018-05-21T00:22:09.444Z,99.99
2018-05-21T00:23:09.403Z,99.99
2018-05-21T00:24:09.364Z,99.99
2018-05-21T00:25:09.344Z,99.99
2018-05-21T00:26:09.291Z,99.99
2018-05-21T00:27:09.255Z,99.99
2018-05-21T00:28:09.216Z,99.99
2018-05-21T00:29:09.176Z,99.99
2018-05-21T00:30:09.152Z,99.99
2018-05-21T00:31:09.093Z,99.99
2018-05-21T00:32:09.046Z,99.99
2018-05-21T00:33:09.007Z,99.99
2018-05-21T00:34:08.974Z,99.99
2018-05-21T00:35:08.937Z,99.99
2018-05-21T00:36:08.913Z,99.99
2018-05-21T00:37:08.852Z,99.99
2018-05-21T00:38:08.819Z,99.99
2018-05-21T00:39:08.777Z,99.99
2018-05-21T00:40:08.767Z,99.99
2018-05-21T00:41:08.697Z,99.99
2018-05-21T00:42:08.653Z,99.99
2018-05-21T00:43:08.612Z,99.99
2018-05-21T00:44:08.576Z,99.99
2018-05-21T00:45:08.551Z,99.99
2018-05-21T00:46:08.524Z,99.99
2018-05-21T00:47:08.501Z,99.99
2018-05-21T00:48:08.424Z,99.99
2018-05-21T00:49:08.381Z,99.99
2018-05-21T00:50:08.362Z,99.99
2018-05-21T00:51:08.299Z,99.99
2018-05-21T00:52:08.267Z,99.99
2018-05-21T00:53:08.224Z,99.99
2018-05-21T00:54:08.182Z,99.99
2018-05-21T00:55:08.148Z,99.99
2018-05-21T00:56:08.124Z,99.99
2018-05-21T00:57:08.062Z,99.99
2018-05-21T00:58:08.030Z,99.99
2018-05-21T00:59:07.989Z,99.99
2018-05-21T01:00:07.951Z,99.99
2018-05-21T01:01:07.936Z,99.99
2018-05-21T01:02:07.864Z,99.99
2018-05-21T01:03:07.827Z,99.99
2018-05-21T01:04:07.788Z,99.99
2018-05-21T01:05:07.742Z,99.99
2018-05-21T01:06:07.715Z,99.99
2018-05-21T01:07:07.696Z,99.99
2018-05-21T01:08:07.628Z,99.99
2018-05-21T01:09:07.590Z,99.99
2018-05-21T01:10:07.553Z,99.99
2018-05-21T01:11:07.511Z,99.99
2018-05-21T01:12:07.501Z,99.99
2018-05-21T01:13:07.433Z,99.99
2018-05-21T01:14:07.391Z,99.99
2018-05-21T01:15:07.345Z,99.99
2018-05-21T01:16:07.310Z,99.99
2018-05-21T01:17:07.294Z,99.99
2018-05-21T01:18:07.236Z,99.99
2018-05-21T01:19:07.195Z,99.99
2018-05-21T01:20:07.158Z,99.99
2018-05-21T01:21:07.113Z,99.99
2018-05-21T01:22:07.073Z,99.99
2018-05-21T01:23:07.053Z,99.99
2018-05-21T01:24:06.993Z,99.99
2018-05-21T01:25:06.959Z,99.99
2018-05-21T01:26:06.912Z,99.99
2018-05-21T01:27:06.869Z,99.99
2018-05-21T01:28:06.855Z,99.99
2018-05-21T01:29:06.793Z,99.99
2018-05-21T01:30:06.759Z,99.99
2018-05-21T01:31:06.720Z,99.99
2018-05-21T01:32:06.676Z,99.99
2018-05-21T01:33:06.672Z,99.99
2018-05-21T01:34:06.592Z,99.99
2018-05-21T01:35:06.553Z,99.99
2018-05-21T01:36:06.516Z,99.99
2018-05-21T01:37:06.477Z,99.99
2018-05-21T01:38:06.438Z,99.99
2018-05-21T01:39:06.416Z,99.99
2018-05-21T01:40:06.356Z,99.99
2018-05-21T01:41:06.320Z,99.99
2018-05-21T01:42:06.283Z,99.99
2018-05-21T01:43:06.237Z,99.99
2018-05-21T01:44:06.229Z,99.99
2018-05-21T01:45:06.164Z,99.99
2018-05-21T01:46:06.116Z,99.99
2018-05-21T01:47:06.077Z,99.99
2018-05-21T01:48:06.039Z,99.99
2018-05-21T01:49:05.999Z,99.99
2018-05-21T01:50:05.985Z,99.99
2018-05-21T01:51:05.922Z,99.99
2018-05-21T01:52:05.884Z,99.99
2018-05-21T01:53:05.841Z,99.99
2018-05-21T01:54:05.826Z,99.99
2018-05-21T01:55:05.759Z,99.99
2018-05-21T01:56:05.727Z,99.99
2018-05-21T01:57:05.686Z,99.99
2018-05-21T01:58:05.637Z,99.99
2018-05-21T01:59:05.598Z,99.99
2018-05-21T02:00:05.575Z,99.99
2018-05-21T02:01:05.517Z,99.99
2018-05-21T02:02:05.485Z,99.99
2018-05-21T02:03:05.444Z,99.99
2018-05-21T02:04:05.429Z,99.99
2018-05-21T02:05:05.365Z,99.99
2018-05-21T02:06:05.318Z,99.99
2018-05-21T02:07:05.281Z,99.99
2018-05-21T02:08:05.277Z,99.99
2018-05-21T02:09:05.199Z,99.99
2018-05-21T02:10:05.189Z,99.99
2018-05-21T02:11:05.133Z,99.99
2018-05-21T02:12:05.079Z,99.99
2018-05-21T02:13:05.044Z,99.99
2018-05-21T02:14:05.006Z,99.99
2018-05-21T02:15:04.989Z,99.99
2018-05-21T02:16:04.925Z,99.99
2018-05-21T02:17:04.886Z,99.99
2018-05-21T02:18:04.856Z,99.99
2018-05-21T02:19:04.797Z,99.99
2018-05-21T02:20:04.847Z,99.99
2018-05-21T02:21:04.720Z,99.99
2018-05-21T02:22:04.686Z,99.99
2018-05-21T02:23:04.647Z,99.99
2018-05-21T02:24:04.606Z,99.99
2018-05-21T02:25:04.572Z,99.99
2018-05-21T02:26:04.547Z,99.99
2018-05-21T02:27:04.485Z,99.99
2018-05-21T02:28:04.445Z,99.99
2018-05-21T02:29:04.410Z,99.99
2018-05-21T02:30:04.360Z,99.99
2018-05-21T02:31:04.322Z,99.99
2018-05-21T02:32:04.301Z,99.99
2018-05-21T02:33:04.238Z,99.99
2018-05-21T02:34:04.206Z,99.99
2018-05-21T02:35:04.167Z,99.99
2018-05-21T02:36:04.153Z,99.99
2018-05-21T02:37:04.086Z,99.99
2018-05-21T02:38:04.035Z,99.99
2018-05-21T02:39:03.998Z,99.99
2018-05-21T02:40:03.964Z,99.99
2018-05-21T02:41:03.959Z,99.99
2018-05-21T02:42:03.897Z,99.99
2018-05-21T02:43:03.847Z,99.99
2018-05-21T02:44:03.800Z,99.99
2018-05-21T02:45:03.759Z,99.99
2018-05-21T02:46:03.731Z,99.99
2018-05-21T02:47:03.711Z,99.99
2018-05-21T02:48:03.647Z,99.99
2018-05-21T02:49:03.607Z,99.99
2018-05-21T02:50:03.560Z,99.99
2018-05-21T02:51:03.521Z,99.99
2018-05-21T02:52:03.508Z,99.99
2018-05-21T02:53:03.441Z,99.99
2018-05-21T02:54:03.413Z,99.99
2018-05-21T02:55:03.364Z,99.99
2018-05-21T02:56:03.328Z,99.99
2018-05-21T02:57:03.291Z,99.99
2018-05-21T02:58:03.269Z,99.99
2018-05-21T02:59:03.200Z,99.99
2018-05-21T03:00:03.169Z,99.99
2018-05-21T03:01:03.126Z,99.99
2018-05-21T03:02:03.144Z,99.99
2018-05-21T03:03:03.061Z,99.99
2018-05-21T03:04:03.003Z,99.99
2018-05-21T03:05:02.962Z,99.99
2018-05-21T03:06:02.923Z,99.99
2018-05-21T03:07:02.891Z,99.99
2018-05-21T03:08:02.868Z,99.99
2018-05-21T03:09:02.805Z,99.99
2018-05-21T03:10:02.758Z,99.99
2018-05-21T03:11:02.717Z,99.99
2018-05-21T03:12:02.682Z,99.99
2018-05-21T03:13:02.660Z,99.99
2018-05-21T03:14:02.608Z,99.99
2018-05-21T03:15:02.564Z,99.99
2018-05-21T03:16:02.520Z,99.99
2018-05-21T03:17:02.479Z,99.99
2018-05-21T03:18:02.472Z,99.99
2018-05-21T03:19:02.407Z,99.99
2018-05-21T03:20:02.364Z,99.99
2018-05-21T03:21:02.329Z,99.99
2018-05-21T03:22:02.276Z,99.99
2018-05-21T03:23:02.240Z,99.99
2018-05-21T03:24:02.220Z,99.99
2018-05-21T03:25:02.159Z,99.99
2018-05-21T03:26:02.125Z,99.99
2018-05-21T03:27:02.085Z,99.99
2018-05-21T03:28:02.045Z,99.99
2018-05-21T03:29:12.841Z,99.99
2018-05-21T03:30:01.970Z,99.99
2018-05-21T03:31:01.929Z,99.99
2018-05-21T03:32:01.877Z,99.99
2018-05-21T03:33:01.836Z,99.99
2018-05-21T03:34:01.801Z,99.99
2018-05-21T03:35:01.779Z,99.99
2018-05-21T03:36:01.728Z,99.99
2018-05-21T03:37:01.685Z,99.99
2018-05-21T03:38:01.648Z,99.99
2018-05-21T03:39:01.601Z,99.99
2018-05-21T03:40:01.575Z,99.99
2018-05-21T03:41:01.516Z,99.99
2018-05-21T03:42:01.481Z,99.99
2018-05-21T03:43:01.461Z,99.99
2018-05-21T03:44:01.500Z,99.99
2018-05-21T03:45:01.390Z,99.99
2018-05-21T03:46:01.318Z,99.99
2018-05-21T03:47:01.276Z,99.99
2018-05-21T03:48:01.245Z,99.99
2018-05-21T03:49:01.206Z,99.99
2018-05-21T03:50:01.174Z,99.99
2018-05-21T03:51:01.144Z,99.99
2018-05-21T03:52:01.080Z,99.99
2018-05-21T03:53:01.037Z,99.99
2018-05-21T03:54:00.999Z,99.99
2018-05-21T03:55:00.961Z,99.99
2018-05-21T03:56:00.953Z,99.99
2018-05-21T03:57:00.965Z,99.99
2018-05-21T03:58:00.844Z,99.99
2018-05-21T03:59:00.806Z,99.99
2018-05-21T04:00:00.759Z,99.99
2018-05-21T04:01:00.719Z,99.99
2018-05-21T04:02:00.707Z,99.99
2018-05-21T04:03:00.644Z,99.99
2018-05-21T04:04:00.599Z,99.99
2018-05-21T04:05:00.562Z,99.99
2018-05-21T04:06:00.520Z,99.99
2018-05-21T04:07:00.506Z,99.99
2018-05-21T04:08:00.452Z,99.99
2018-05-21T04:09:00.405Z,99.99
2018-05-21T04:10:00.371Z,99.99
2018-05-21T04:11:00.334Z,99.99
2018-05-21T04:12:00.462Z,99.99
2018-05-21T04:13:00.261Z,99.99
2018-05-21T04:14:00.203Z,99.99
2018-05-21T04:15:00.164Z,99.99
2018-05-21T04:16:11.358Z,99.99
2018-05-21T04:17:00.085Z,99.99
2018-05-21T04:18:00.078Z,99.99
2018-05-21T04:19:00.009Z,99.99
2018-05-21T04:19:59.973Z,99.99
2018-05-21T04:20:59.933Z,99.99
2018-05-21T04:21:59.887Z,99.99
2018-05-21T04:22:59.843Z,99.99
2018-05-21T04:24:09.411Z,99.99
2018-05-21T04:24:59.772Z,99.99
2018-05-21T04:25:59.735Z,99.99
2018-05-21T04:26:59.694Z,99.99
2018-05-21T04:27:59.650Z,99.99
2018-05-21T04:28:59.630Z,99.99
2018-05-21T04:29:59.578Z,99.99
2018-05-21T04:30:59.543Z,99.99
2018-05-21T04:31:59.490Z,99.99
2018-05-21T04:32:59.449Z,99.99
2018-05-21T04:33:59.430Z,99.99
2018-05-21T04:34:59.368Z,99.99
2018-05-21T04:35:59.346Z,99.99
2018-05-21T04:36:59.300Z,99.99
2018-05-21T04:37:59.259Z,99.99
2018-05-21T04:38:59.246Z,99.99
2018-05-21T04:39:59.175Z,99.99
2018-05-21T04:40:59.137Z,99.99
2018-05-21T04:41:59.094Z,99.99
2018-05-21T04:42:59.057Z,98.33
2018-05-21T04:43:59.023Z,92.54
2018-05-21T04:44:59.013Z,87.17
2018-05-21T04:45:58.940Z,82.46
2018-05-21T04:46:58.911Z,79.53
2018-05-21T04:47:58.869Z,77.33
2018-05-21T04:48:58.829Z,76.27
2018-05-21T04:49:58.796Z,77.19
2018-05-21T04:50:58.772Z,78.64
2018-05-21T04:51:58.707Z,81.52
2018-05-21T04:52:58.668Z,82.24
2018-05-21T04:53:58.631Z,83.97
2018-05-21T04:54:58.590Z,83.44
2018-05-21T04:55:58.587Z,81.89
2018-05-21T04:56:58.528Z,77.26
2018-05-21T04:57:58.484Z,75.23
2018-05-21T04:58:58.450Z,72.29
2018-05-21T04:59:58.407Z,69.28
2018-05-21T05:00:58.371Z,67.35
2018-05-21T05:01:58.359Z,66.42
2018-05-21T05:02:58.300Z,65.24
2018-05-21T05:03:58.255Z,64.98
2018-05-21T05:04:58.216Z,64.18
2018-05-21T05:05:58.179Z,61.77
2018-05-21T05:06:58.165Z,61.03
2018-05-21T05:07:58.117Z,61.38
2018-05-21T05:08:58.078Z,58.48
2018-05-21T05:09:58.043Z,57.64
2018-05-21T05:10:58.006Z,56.99
2018-05-21T05:11:57.994Z,56.96
2018-05-21T05:12:57.933Z,57.90
2018-05-21T05:13:57.895Z,59.30
2018-05-21T05:14:57.859Z,63.02
2018-05-21T05:15:57.841Z,66.81
2018-05-21T05:16:57.798Z,69.66
2018-05-21T05:17:57.780Z,70.94
2018-05-21T05:18:57.723Z,71.71
2018-05-21T05:19:57.692Z,69.12
2018-05-21T05:20:57.745Z,66.36
2018-05-21T05:21:57.643Z,64.43
2018-05-21T05:22:57.589Z,66.14
2018-05-21T05:23:57.544Z,70.98
2018-05-21T05:24:57.513Z,69.02
2018-05-21T05:25:57.475Z,72.34
2018-05-21T05:26:57.459Z,73.08
2018-05-21T05:27:57.416Z,75.00
2018-05-21T05:28:57.379Z,74.96
2018-05-21T05:29:57.345Z,76.31
2018-05-21T05:30:57.307Z,76.98
2018-05-21T05:31:57.304Z,76.69
2018-05-21T05:32:57.241Z,77.40
2018-05-21T05:33:57.205Z,75.87
2018-05-21T05:34:57.171Z,74.23
2018-05-21T05:35:57.134Z,75.48
2018-05-21T05:36:57.118Z,76.12
2018-05-21T05:37:57.058Z,77.36
2018-05-21T05:38:57.019Z,77.36
2018-05-21T05:39:56.992Z,78.77
2018-05-21T05:40:56.959Z,80.40
2018-05-21T05:41:56.951Z,80.20
2018-05-21T05:42:56.922Z,79.63
2018-05-21T05:43:56.845Z,80.49
2018-05-21T05:44:56.821Z,80.78
2018-05-21T05:45:56.772Z,81.35
2018-05-21T05:46:56.739Z,82.51
2018-05-21T05:47:56.732Z,82.56
2018-05-21T05:48:56.699Z,84.48
2018-05-21T05:49:56.629Z,83.81
2018-05-21T05:50:56.593Z,83.91
2018-05-21T05:51:56.563Z,82.65
2018-05-21T05:52:56.552Z,83.37
2018-05-21T05:53:56.495Z,83.47
2018-05-21T05:54:56.461Z,83.56
2018-05-21T05:55:56.416Z,83.65
2018-05-21T05:56:56.380Z,83.98
2018-05-21T05:57:56.343Z,83.65
2018-05-21T05:58:56.331Z,83.70
2018-05-21T05:59:56.281Z,82.93
2018-05-21T06:00:56.245Z,82.70
2018-05-21T06:01:56.203Z,81.87
2018-05-21T06:02:56.165Z,81.30
2018-05-21T06:03:56.126Z,81.87
2018-05-21T06:04:56.111Z,81.68
2018-05-21T06:05:56.066Z,80.57
2018-05-21T06:06:56.031Z,78.98
2018-05-21T06:07:55.985Z,75.34
2018-05-21T06:08:55.948Z,71.98
2018-05-21T06:09:55.923Z,68.99
2018-05-21T06:10:55.901Z,69.15
2018-05-21T06:11:55.849Z,71.18
2018-05-21T06:12:55.806Z,72.39
2018-05-21T06:13:55.773Z,71.59
2018-05-21T06:14:55.736Z,72.84
2018-05-21T06:15:55.717Z,72.17
2018-05-21T06:16:55.661Z,72.45
2018-05-21T06:17:55.623Z,71.53
2018-05-21T06:18:55.589Z,72.14
2018-05-21T06:19:55.561Z,70.44
2018-05-21T06:20:55.552Z,68.93
2018-05-21T06:21:55.482Z,69.35
2018-05-21T06:22:55.445Z,69.45
2018-05-21T06:23:55.415Z,69.64
2018-05-21T06:24:55.382Z,68.74
2018-05-21T06:25:55.399Z,69.83
2018-05-21T06:26:55.335Z,71.85
2018-05-21T06:27:55.269Z,73.03
2018-05-21T06:28:55.236Z,72.61
2018-05-21T06:29:55.203Z,74.09
2018-05-21T06:30:55.170Z,73.57
2018-05-21T06:31:55.227Z,74.92
2018-05-21T06:32:55.105Z,75.02
2018-05-21T06:33:55.126Z,73.77
2018-05-21T06:34:55.037Z,74.34
2018-05-21T06:35:54.993Z,74.88
2018-05-21T06:36:54.958Z,77.61
2018-05-21T06:37:54.953Z,75.40
2018-05-21T06:38:54.899Z,76.31
2018-05-21T06:39:54.859Z,78.61
2018-05-21T06:40:54.819Z,74.29
2018-05-21T06:41:54.783Z,73.94
2018-05-21T06:42:54.777Z,74.32
2018-05-21T06:43:54.729Z,72.72
2018-05-21T06:44:54.690Z,73.05
2018-05-21T06:45:54.650Z,71.38
2018-05-21T06:46:54.616Z,71.03
2018-05-21T06:47:54.574Z,71.22
2018-05-21T06:48:54.570Z,68.84
2018-05-21T06:49:54.506Z,67.33
2018-05-21T06:50:54.472Z,65.24
2018-05-21T06:51:54.448Z,62.79
2018-05-21T06:52:54.423Z,60.78
2018-05-21T06:53:54.378Z,62.30
2018-05-21T06:54:54.369Z,64.01
2018-05-21T06:55:54.307Z,63.92
2018-05-21T06:56:54.275Z,63.66
2018-05-21T06:57:54.240Z,62.53
2018-05-21T06:58:54.211Z,61.14
2018-05-21T07:00:03.976Z,57.37
2018-05-21T07:00:54.134Z,54.05
2018-05-21T07:01:54.105Z,50.43
2018-05-21T07:02:54.100Z,47.25
2018-05-21T07:03:54.042Z,45.46
2018-05-21T07:04:54.031Z,42.09
2018-05-21T07:05:53.969Z,41.44
2018-05-21T07:06:53.939Z,41.72
2018-05-21T07:07:53.984Z,39.41
2018-05-21T07:08:53.884Z,39.86
2018-05-21T07:10:02.497Z,39.70
2018-05-21T07:10:53.814Z,36.68
2018-05-21T07:11:53.788Z,37.00
2018-05-21T07:12:53.762Z,40.19
2018-05-21T07:13:53.723Z,39.12
2018-05-21T07:14:53.722Z,38.53
2018-05-21T07:15:53.673Z,39.22
2018-05-21T07:16:53.626Z,40.06
2018-05-21T07:17:53.593Z,40.72
2018-05-21T07:18:53.561Z,41.50
2018-05-21T07:19:53.539Z,43.49
2018-05-21T07:20:53.533Z,41.07
2018-05-21T07:21:53.477Z,40.64
2018-05-21T07:22:53.443Z,41.48
2018-05-21T07:23:53.418Z,43.13
2018-05-21T07:24:53.412Z,40.93
2018-05-21T07:25:53.359Z,40.16
2018-05-21T07:26:53.333Z,41.46
2018-05-21T07:27:53.292Z,42.45
2018-05-21T07:28:53.262Z,42.35
2018-05-21T07:29:53.250Z,45.45
2018-05-21T07:30:53.202Z,43.38
2018-05-21T07:31:53.178Z,48.34
2018-05-21T07:32:53.152Z,45.67
2018-05-21T07:33:53.115Z,46.04
2018-05-21T07:34:53.108Z,48.66
2018-05-21T07:35:53.045Z,47.47
2018-05-21T07:36:53.024Z,46.91
2018-05-21T07:37:52.999Z,43.90
2018-05-21T07:38:53.093Z,45.84
2018-05-21T07:39:52.949Z,46.19
2018-05-21T07:40:52.898Z,47.60
2018-05-21T07:41:52.865Z,50.79
2018-05-21T07:42:52.834Z,50.87
2018-05-21T07:43:52.812Z,50.07
2018-05-21T07:44:52.827Z,52.87
2018-05-21T07:45:52.751Z,52.36
2018-05-21T07:46:52.717Z,52.56
2018-05-21T07:47:52.684Z,52.78
2018-05-21T07:48:52.649Z,53.87
2018-05-21T07:49:52.640Z,52.32
2018-05-21T07:50:52.585Z,52.42
2018-05-21T07:51:52.557Z,53.12
2018-05-21T07:52:52.527Z,54.19
2018-05-21T07:53:52.508Z,55.83
2018-05-21T07:54:52.457Z,54.02
2018-05-21T07:55:52.434Z,50.14
2018-05-21T07:56:52.416Z,50.82
2018-05-21T07:57:52.369Z,48.64
2018-05-21T07:58:52.364Z,50.57
2018-05-21T07:59:52.299Z,52.22
2018-05-21T08:00:52.274Z,52.12
2018-05-21T08:01:52.237Z,51.76
2018-05-21T08:02:52.204Z,50.62
2018-05-21T08:03:52.208Z,50.14
2018-05-21T08:04:52.151Z,48.80
2018-05-21T08:05:52.129Z,48.64
2018-05-21T08:06:52.084Z,47.38
2018-05-21T08:07:52.051Z,48.75
2018-05-21T08:08:52.039Z,49.15
2018-05-21T08:09:51.989Z,49.41
2018-05-21T08:10:51.967Z,49.92
2018-05-21T08:11:51.921Z,48.30
2018-05-21T08:12:51.906Z,47.08
2018-05-21T08:13:51.883Z,46.88
2018-05-21T08:14:51.967Z,47.90
2018-05-21T08:15:51.806Z,43.25
2018-05-21T08:16:51.776Z,39.39
2018-05-21T08:17:51.743Z,41.95
2018-05-21T08:18:51.737Z,38.28
2018-05-21T08:19:51.677Z,40.45
2018-05-21T08:20:51.647Z,38.69
2018-05-21T08:21:51.616Z,39.16
2018-05-21T08:22:51.588Z,39.53
2018-05-21T08:23:51.587Z,40.19
2018-05-21T08:24:51.542Z,39.75
2018-05-21T08:25:51.503Z,41.46
2018-05-21T08:26:51.473Z,41.53
2018-05-21T08:27:51.473Z,43.62
2018-05-21T08:28:51.431Z,41.38
2018-05-21T08:29:51.399Z,40.03
2018-05-21T08:30:51.369Z,40.08
2018-05-21T08:31:51.331Z,41.67
2018-05-21T08:32:51.330Z,39.28
2018-05-21T08:33:51.275Z,39.29
2018-05-21T08:34:51.250Z,35.50
2018-05-21T08:35:51.230Z,36.08
2018-05-21T08:36:51.202Z,39.23
2018-05-21T08:37:51.196Z,40.14
2018-05-21T08:38:51.145Z,34.55
2018-05-21T08:39:51.117Z,36.85
2018-05-21T08:40:51.085Z,38.45
2018-05-21T08:41:51.068Z,39.43
2018-05-21T08:42:51.060Z,39.02
2018-05-21T08:43:51.009Z,39.20
2018-05-21T08:44:50.978Z,40.16
2018-05-21T08:45:50.952Z,42.61
2018-05-21T08:46:50.925Z,40.97
2018-05-21T08:47:50.928Z,40.29
2018-05-21T08:48:50.956Z,38.14
2018-05-21T08:49:50.863Z,40.37
2018-05-21T08:50:50.828Z,40.83
2018-05-21T08:51:50.791Z,41.32
2018-05-21T08:52:50.791Z,41.63
2018-05-21T08:53:50.745Z,40.55
2018-05-21T08:54:50.719Z,43.02
2018-05-21T08:55:50.702Z,38.26
2018-05-21T08:56:50.674Z,37.93
2018-05-21T08:57:50.656Z,39.08
2018-05-21T08:58:50.695Z,43.59
2018-05-21T08:59:50.591Z,39.29
2018-05-21T09:00:50.566Z,38.79
2018-05-21T09:01:50.563Z,38.10
2018-05-21T09:02:50.519Z,39.08
2018-05-21T09:03:50.478Z,38.32
2018-05-21T09:04:50.453Z,37.87
2018-05-21T09:05:50.430Z,38.54
2018-05-21T09:06:50.426Z,40.11
2018-05-21T09:07:50.387Z,38.87
2018-05-21T09:08:50.355Z,37.45
2018-05-21T09:09:50.331Z,38.03
2018-05-21T09:10:50.301Z,38.77
2018-05-21T09:11:50.296Z,40.34
2018-05-21T09:12:50.244Z,40.08
2018-05-21T09:13:50.225Z,39.98
2018-05-21T09:14:50.196Z,40.09
2018-05-21T09:15:50.163Z,40.11
2018-05-21T09:16:50.158Z,38.65
2018-05-21T09:17:50.105Z,38.85
2018-05-21T09:18:50.079Z,38.07
2018-05-21T09:19:50.061Z,38.32
2018-05-21T09:20:50.032Z,40.54
2018-05-21T09:21:50.029Z,41.44
2018-05-21T09:22:49.982Z,39.98
2018-05-21T09:23:49.945Z,38.50
2018-05-21T09:24:49.912Z,39.96
2018-05-21T09:25:49.885Z,41.42
2018-05-21T09:26:49.881Z,39.94
2018-05-21T09:27:49.835Z,40.64
2018-05-21T09:28:49.805Z,41.49
2018-05-21T09:29:49.769Z,40.41
2018-05-21T09:30:49.744Z,41.47
2018-05-21T09:31:49.744Z,42.44
2018-05-21T09:32:49.697Z,41.30
2018-05-21T09:33:49.661Z,41.42
2018-05-21T09:34:49.642Z,40.03
2018-05-21T09:35:49.603Z,39.45
2018-05-21T09:36:49.594Z,40.41
2018-05-21T09:37:49.544Z,40.03
2018-05-21T09:38:49.510Z,39.65
2018-05-21T09:39:49.492Z,40.31
2018-05-21T09:40:49.487Z,41.47
2018-05-21T09:41:49.436Z,39.82
2018-05-21T09:42:49.406Z,41.45
2018-05-21T09:43:49.372Z,41.28
2018-05-21T09:44:49.356Z,41.39
2018-05-21T09:45:49.348Z,40.15
2018-05-21T09:46:49.291Z,42.11
2018-05-21T09:47:49.259Z,38.29
2018-05-21T09:48:49.321Z,41.42
2018-05-21T09:49:49.206Z,40.34
2018-05-21T09:50:49.203Z,38.57
2018-05-21T09:51:49.157Z,39.16
2018-05-21T09:52:49.125Z,39.14
2018-05-21T09:53:49.097Z,39.72
2018-05-21T09:54:49.068Z,40.60
2018-05-21T09:55:49.065Z,41.39
2018-05-21T09:56:49.010Z,39.45
2018-05-21T09:57:48.977Z,39.96
2018-05-21T09:58:48.964Z,38.32
2018-05-21T09:59:48.926Z,38.98
2018-05-21T10:00:48.927Z,40.64
2018-05-21T10:01:48.869Z,38.21
2018-05-21T10:02:48.845Z,38.77
2018-05-21T10:03:48.860Z,41.24
2018-05-21T10:04:48.805Z,38.39
2018-05-21T10:05:48.789Z,39.82
2018-05-21T10:06:48.734Z,38.56
2018-05-21T10:07:48.701Z,38.71
2018-05-21T10:08:48.676Z,40.41
2018-05-21T10:09:48.647Z,40.72
2018-05-21T10:10:48.662Z,39.94
2018-05-21T10:11:48.598Z,39.14
2018-05-21T10:12:48.583Z,38.79
2018-05-21T10:13:48.539Z,37.99
2018-05-21T10:14:48.533Z,38.27
2018-05-21T10:15:48.478Z,38.27
2018-05-21T10:16:48.449Z,38.87
2018-05-21T10:17:48.435Z,39.04
2018-05-21T10:18:48.405Z,38.27
2018-05-21T10:19:48.393Z,37.88
2018-05-21T10:20:48.343Z,39.26
2018-05-21T10:21:48.311Z,38.87
2018-05-21T10:22:48.283Z,37.43
2018-05-21T10:23:48.263Z,40.47
2018-05-21T10:24:48.255Z,37.24
2018-05-21T10:25:48.207Z,36.75
2018-05-21T10:26:48.177Z,37.34
2018-05-21T10:27:48.146Z,37.62
2018-05-21T10:28:48.129Z,36.05
2018-05-21T10:29:48.107Z,37.92
2018-05-21T10:30:48.085Z,38.11
2018-05-21T10:31:48.049Z,36.91
2018-05-21T10:32:48.019Z,36.50
2018-05-21T10:33:47.995Z,39.51
2018-05-21T10:34:47.979Z,39.03
2018-05-21T10:35:47.935Z,38.17
2018-05-21T10:36:47.912Z,38.37
2018-05-21T10:37:47.873Z,37.88
2018-05-21T10:38:47.852Z,37.10
2018-05-21T10:39:47.837Z,37.86
2018-05-21T10:40:47.785Z,39.62
2018-05-21T10:41:47.762Z,39.18
2018-05-21T10:42:47.739Z,38.42
2018-05-21T10:43:47.764Z,37.45
2018-05-21T10:44:47.714Z,35.31
2018-05-21T10:45:47.660Z,35.80
2018-05-21T10:46:47.628Z,35.17
2018-05-21T10:47:47.599Z,39.06
2018-05-21T10:48:47.592Z,38.52
2018-05-21T10:49:47.544Z,37.54
2018-05-21T10:50:47.521Z,36.28
2018-05-21T10:51:47.490Z,39.18
2018-05-21T10:52:58.601Z,38.48
2018-05-21T10:53:47.472Z,39.59
2018-05-21T10:54:47.411Z,39.41
2018-05-21T10:55:47.388Z,38.54
2018-05-21T10:56:47.374Z,37.45
2018-05-21T10:57:47.329Z,37.54
2018-05-21T10:58:47.321Z,38.13
2018-05-21T10:59:47.283Z,38.71
2018-05-21T11:00:47.280Z,38.62
2018-05-21T11:01:47.244Z,39.57
2018-05-21T11:02:47.225Z,37.90
2018-05-21T11:03:47.199Z,38.31
2018-05-21T11:04:47.153Z,36.93
2018-05-21T11:05:47.135Z,37.99
2018-05-21T11:06:47.104Z,37.10
2018-05-21T11:07:47.071Z,37.57
2018-05-21T11:08:47.065Z,38.56
2018-05-21T11:09:47.014Z,40.23
2018-05-21T11:10:47.053Z,40.34
2018-05-21T11:11:46.962Z,39.00
2018-05-21T11:12:46.933Z,37.54
2018-05-21T11:13:46.943Z,35.78
2018-05-21T11:14:46.889Z,37.14
2018-05-21T11:15:46.866Z,37.34
2018-05-21T11:16:57.128Z,36.34
2018-05-21T11:17:46.846Z,37.41
2018-05-21T11:18:46.814Z,36.15
2018-05-21T11:19:46.760Z,36.32
2018-05-21T11:20:46.726Z,36.93
2018-05-21T11:21:46.695Z,37.12
2018-05-21T11:22:46.675Z,34.77
2018-05-21T11:23:46.683Z,37.39
2018-05-21T11:24:46.715Z,37.51
2018-05-21T11:25:46.620Z,36.24
2018-05-21T11:26:46.581Z,37.90
2018-05-21T11:27:46.568Z,40.34
2018-05-21T11:28:46.525Z,36.36
2018-05-21T11:29:46.502Z,37.04
2018-05-21T11:30:46.470Z,38.09
2018-05-21T11:31:46.460Z,35.96
2018-05-21T11:32:46.441Z,36.05
2018-05-21T11:33:46.384Z,38.57
2018-05-21T11:34:46.365Z,37.02
2018-05-21T11:35:46.352Z,35.76
2018-05-21T11:36:46.330Z,37.32
2018-05-21T11:37:46.312Z,36.63
2018-05-21T11:38:46.275Z,37.60
2018-05-21T11:39:56.657Z,37.22
2018-05-21T11:40:46.221Z,35.25
2018-05-21T11:41:46.205Z,34.19
2018-05-21T11:42:46.194Z,34.48
2018-05-21T11:43:46.154Z,36.83
2018-05-21T11:44:46.115Z,35.86
2018-05-21T11:45:46.080Z,34.30
2018-05-21T11:46:46.055Z,35.47
2018-05-21T11:47:46.058Z,35.25
2018-05-21T11:48:46.042Z,35.64
2018-05-21T11:49:45.973Z,35.35
2018-05-21T11:50:46.023Z,34.48
2018-05-21T11:51:45.925Z,35.55
2018-05-21T11:52:45.918Z,36.34
2018-05-21T11:53:45.876Z,36.32
2018-05-21T11:54:45.851Z,33.99
2018-05-21T11:55:45.822Z,34.79
2018-05-21T11:56:45.811Z,37.12
2018-05-21T11:57:45.792Z,36.15
2018-05-21T11:58:56.193Z,35.45
2018-05-21T11:59:45.715Z,36.32
2018-05-21T12:00:45.695Z,35.35
2018-05-21T12:01:45.705Z,33.51
2018-05-21T12:02:45.787Z,35.25
2018-05-21T12:03:56.726Z,31.95
2018-05-21T12:04:45.592Z,33.51
2018-05-21T12:05:45.564Z,35.25
2018-05-21T12:06:45.548Z,32.73
2018-05-21T12:07:45.533Z,32.23
2018-05-21T12:08:45.494Z,32.71
2018-05-21T12:09:45.454Z,33.69
2018-05-21T12:10:45.447Z,35.43
2018-05-21T12:11:45.428Z,34.67
2018-05-21T12:12:45.380Z,32.70
2018-05-21T12:13:45.341Z,34.36
2018-05-21T12:14:45.318Z,34.75
2018-05-21T12:15:45.299Z,33.86
2018-05-21T12:16:45.293Z,34.44
2018-05-21T12:17:45.233Z,33.96
2018-05-21T12:18:45.209Z,34.36
2018-05-21T12:19:45.180Z,33.49
2018-05-21T12:20:45.153Z,34.44
2018-05-21T12:21:45.153Z,35.33
2018-05-21T12:22:45.108Z,34.19
2018-05-21T12:23:45.083Z,33.59
2018-05-21T12:24:45.068Z,33.02
2018-05-21T12:25:45.016Z,35.64
2018-05-21T12:26:45.018Z,35.35
2018-05-21T12:27:44.965Z,35.55
2018-05-21T12:28:44.999Z,34.48
2018-05-21T12:29:44.925Z,33.67
2018-05-21T12:30:44.886Z,33.28
2018-05-21T12:31:44.880Z,33.57
2018-05-21T12:32:44.828Z,36.69
2018-05-21T12:33:44.808Z,34.17
2018-05-21T12:34:44.779Z,36.21
2018-05-21T12:35:44.755Z,34.66
2018-05-21T12:36:44.782Z,35.43
2018-05-21T12:37:44.711Z,34.36
2018-05-21T12:38:44.668Z,33.59
2018-05-21T12:39:44.649Z,33.98
2018-05-21T12:40:44.647Z,33.78
2018-05-21T12:41:44.601Z,34.36
2018-05-21T12:42:44.573Z,34.08
2018-05-21T12:43:44.552Z,32.81
2018-05-21T12:44:44.525Z,34.08
2018-05-21T12:45:44.515Z,32.99
2018-05-21T12:46:44.549Z,34.25
2018-05-21T12:47:44.461Z,33.96
2018-05-21T12:48:44.422Z,33.09
2018-05-21T12:49:44.388Z,32.50
2018-05-21T12:50:44.388Z,33.47
2018-05-21T12:51:44.336Z,33.78